Time;durP1;ratioP1;P1;durP2;ratioP2;P2;SDS_P1;SDS_P2;PMS_P1;PMS_P2;Temp;Humidity;BMP_temperature;BMP_pressure;BME280_temperature;BME280_humidity;BME280_pressure;Samples;Min_cycle;Max_cycle;Signal;HPM_P1;HPM_P2
2023/03/16 00:00:55;;;;;;;2.33;1.50;;;;;;;;;;5040477;28;20124;-67
2023/03/16 00:03:20;;;;;;;2.42;1.60;;;;;;;;;;5028188;28;20577;-68
2023/03/16 00:05:46;;;;;;;2.87;1.53;;;;;;;;;;5028330;28;20065;-67
2023/03/16 00:08:11;;;;;;;2.63;1.60;;;;;;;;;;5031265;28;20323;-64
2023/03/16 00:10:36;;;;;;;2.00;1.30;;;;;;;;;;5017601;28;20494;-67
2023/03/16 00:13:02;;;;;;;2.10;1.33;;;;;;;;;;5044661;28;20055;-68
2023/03/16 00:15:28;;;;;;;2.20;1.50;;;;;;;;;;5041128;28;20029;-69
2023/03/16 00:17:53;;;;;;;2.22;1.30;;;;;;;;;;5015800;28;20418;-69
2023/03/16 00:20:18;;;;;;;1.80;1.30;;;;;;;;;;5020985;28;20044;-65
2023/03/16 00:22:44;;;;;;;2.13;1.30;;;;;;;;;;5016482;28;20041;-61
2023/03/16 00:25:09;;;;;;;2.20;1.53;;;;;;;;;;5033879;28;20280;-65
2023/03/16 00:27:35;;;;;;;2.33;1.40;;;;;;;;;;5032339;28;20328;-68
2023/03/16 00:30:02;;;;;;;2.73;1.47;;;;;;;;;;5039665;28;20128;-67
2023/03/16 00:32:28;;;;;;;2.80;1.60;;;;;;;;;;5032190;28;20367;-70
2023/03/16 00:34:53;;;;;;;1.92;1.10;;;;;;;;;;5028327;28;20059;-64
2023/03/16 00:37:19;;;;;;;1.98;1.33;;;;;;;;;;5033704;28;20434;-67
2023/03/16 00:39:44;;;;;;;2.35;1.50;;;;;;;;;;5040625;28;20132;-66
2023/03/16 00:42:10;;;;;;;2.10;1.40;;;;;;;;;;5020022;28;20163;-65
2023/03/16 00:44:35;;;;;;;2.15;1.33;;;;;;;;;;5024961;28;20210;-67
2023/03/16 00:47:01;;;;;;;2.55;1.40;;;;;;;;;;5019867;28;20098;-67
2023/03/16 00:49:26;;;;;;;2.28;1.30;;;;;;;;;;5032182;28;20426;-67
2023/03/16 00:51:51;;;;;;;2.40;1.40;;;;;;;;;;5035089;28;20033;-69
2023/03/16 00:54:17;;;;;;;1.77;1.20;;;;;;;;;;5044195;28;20044;-63
2023/03/16 00:56:42;;;;;;;1.73;1.30;;;;;;;;;;5021755;28;20051;-66
2023/03/16 00:59:07;;;;;;;1.97;1.30;;;;;;;;;;5030479;28;20300;-69
2023/03/16 01:01:33;;;;;;;2.00;1.13;;;;;;;;;;5037255;28;20812;-67
2023/03/16 01:03:58;;;;;;;1.70;1.20;;;;;;;;;;5037018;28;20034;-68
2023/03/16 01:06:24;;;;;;;2.03;1.23;;;;;;;;;;5038209;28;20033;-65
2023/03/16 01:08:51;;;;;;;2.50;1.27;;;;;;;;;;5033857;28;20113;-68
2023/03/16 01:11:17;;;;;;;1.83;1.30;;;;;;;;;;5030719;28;20186;-68
2023/03/16 01:13:42;;;;;;;1.65;1.10;;;;;;;;;;5021393;28;20052;-65
2023/03/16 01:16:08;;;;;;;1.50;1.00;;;;;;;;;;5044726;28;20053;-64
2023/03/16 01:18:33;;;;;;;2.08;1.30;;;;;;;;;;5031837;28;20272;-66
2023/03/16 01:21:02;;;;;;;1.85;1.20;;;;;;;;;;5029788;28;20479;-69
2023/03/16 01:23:29;;;;;;;1.77;0.98;;;;;;;;;;5036442;28;20037;-68
2023/03/16 01:25:54;;;;;;;1.60;0.90;;;;;;;;;;5034831;28;20107;-66
2023/03/16 01:28:20;;;;;;;1.52;0.93;;;;;;;;;;5034871;28;20037;-64
2023/03/16 01:30:45;;;;;;;1.67;1.15;;;;;;;;;;5042283;28;20050;-65
2023/03/16 01:33:11;;;;;;;2.17;1.10;;;;;;;;;;5038797;28;20041;-68
2023/03/16 01:35:36;;;;;;;1.77;1.20;;;;;;;;;;5034886;28;20102;-68
2023/03/16 01:38:03;;;;;;;1.85;1.00;;;;;;;;;;5042589;28;20055;-66
2023/03/16 01:40:28;;;;;;;2.05;0.88;;;;;;;;;;5028084;28;20068;-68
2023/03/16 01:43:00;;;;;;;1.42;0.90;;;;;;;;;;5035982;28;20150;-67
2023/03/16 01:45:44;;;;;;;1.63;0.95;;;;;;;;;;5036256;28;20047;-66
2023/03/16 01:48:10;;;;;;;1.48;0.90;;;;;;;;;;5032837;28;20037;-68
2023/03/16 01:50:35;;;;;;;1.27;0.90;;;;;;;;;;5036924;28;20068;-68
2023/03/16 01:53:00;;;;;;;1.60;1.00;;;;;;;;;;5013477;28;20284;-69
2023/03/16 01:55:25;;;;;;;1.35;0.85;;;;;;;;;;5036379;28;20333;-65
2023/03/16 01:57:51;;;;;;;1.83;1.07;;;;;;;;;;5036246;28;20501;-66
2023/03/16 02:00:22;;;;;;;1.42;0.70;;;;;;;;;;5046459;28;20695;-65
2023/03/16 02:02:52;;;;;;;1.70;1.17;;;;;;;;;;5046732;28;20044;-71
2023/03/16 02:05:25;;;;;;;1.50;0.82;;;;;;;;;;5039065;28;20025;-69
2023/03/16 02:07:51;;;;;;;1.58;0.93;;;;;;;;;;5029704;28;20041;-67
2023/03/16 02:10:17;;;;;;;1.40;1.00;;;;;;;;;;5046305;28;20075;-69
2023/03/16 02:12:42;;;;;;;1.52;0.88;;;;;;;;;;5043892;28;20131;-69
2023/03/16 02:15:08;;;;;;;1.42;0.90;;;;;;;;;;5045980;28;20037;-69
2023/03/16 02:17:33;;;;;;;1.42;0.90;;;;;;;;;;5048238;28;20055;-69
2023/03/16 02:20:10;;;;;;;1.40;0.80;;;;;;;;;;5057775;28;20070;-69
2023/03/16 02:22:43;;;;;;;1.45;0.80;;;;;;;;;;5039375;28;20166;-65
2023/03/16 02:25:09;;;;;;;1.35;0.75;;;;;;;;;;5046711;28;20037;-65
2023/03/16 02:27:46;;;;;;;1.10;0.70;;;;;;;;;;5045115;28;20127;-70
2023/03/16 02:30:12;;;;;;;1.08;0.65;;;;;;;;;;5045265;28;20096;-68
2023/03/16 02:32:37;;;;;;;1.50;1.00;;;;;;;;;;5062126;28;21799;-70
2023/03/16 02:35:02;;;;;;;1.38;0.82;;;;;;;;;;5039759;28;20037;-70
2023/03/16 02:37:28;;;;;;;1.00;0.70;;;;;;;;;;5038975;28;20032;-69
2023/03/16 02:39:53;;;;;;;1.23;0.80;;;;;;;;;;5035843;28;20493;-68
2023/03/16 02:42:20;;;;;;;1.23;0.80;;;;;;;;;;5046777;28;20347;-67
2023/03/16 02:44:46;;;;;;;0.98;0.70;;;;;;;;;;5051290;28;20295;-62
2023/03/16 02:47:14;;;;;;;1.23;0.80;;;;;;;;;;5057819;28;20041;-65
2023/03/16 02:49:40;;;;;;;1.13;0.80;;;;;;;;;;5062301;28;20108;-68
2023/03/16 02:52:05;;;;;;;1.60;0.65;;;;;;;;;;5049898;28;20020;-64
2023/03/16 02:54:31;;;;;;;1.15;0.75;;;;;;;;;;5037659;28;20017;-63
2023/03/16 02:56:56;;;;;;;1.58;0.95;;;;;;;;;;5044159;28;20025;-63
2023/03/16 02:59:21;;;;;;;1.20;0.77;;;;;;;;;;5072174;28;20044;-67
2023/03/16 03:01:46;;;;;;;1.33;0.90;;;;;;;;;;5058001;28;20024;-62
2023/03/16 03:04:12;;;;;;;0.95;0.60;;;;;;;;;;5033230;28;20901;-63
2023/03/16 03:06:37;;;;;;;0.85;0.55;;;;;;;;;;5041058;28;20027;-69
2023/03/16 03:09:02;;;;;;;1.45;0.75;;;;;;;;;;5039239;28;20033;-67
2023/03/16 03:11:28;;;;;;;0.60;0.50;;;;;;;;;;5047751;28;20464;-64
2023/03/16 03:13:53;;;;;;;1.07;0.57;;;;;;;;;;5032327;28;20064;-65
2023/03/16 03:16:18;;;;;;;0.90;0.50;;;;;;;;;;5052258;28;20267;-67
2023/03/16 03:18:44;;;;;;;1.20;0.65;;;;;;;;;;5046182;28;20501;-63
2023/03/16 03:21:09;;;;;;;1.13;0.70;;;;;;;;;;5011669;28;20049;-67
2023/03/16 03:23:34;;;;;;;0.90;0.55;;;;;;;;;;5038683;28;20345;-67
2023/03/16 03:25:59;;;;;;;1.50;0.60;;;;;;;;;;5045123;28;20485;-64
2023/03/16 03:28:25;;;;;;;0.77;0.40;;;;;;;;;;5044023;28;20345;-66
2023/03/16 03:30:50;;;;;;;1.13;0.68;;;;;;;;;;5043758;28;20448;-68
2023/03/16 03:33:16;;;;;;;1.00;0.52;;;;;;;;;;5049305;28;20402;-70
2023/03/16 03:35:41;;;;;;;1.02;0.57;;;;;;;;;;5063263;28;20017;-68
2023/03/16 03:38:07;;;;;;;1.00;0.60;;;;;;;;;;5018729;28;20514;-65
2023/03/16 03:40:32;;;;;;;0.70;0.47;;;;;;;;;;5030180;28;20104;-65
2023/03/16 03:42:57;;;;;;;0.73;0.50;;;;;;;;;;5030611;28;20082;-68
2023/03/16 03:45:23;;;;;;;0.83;0.50;;;;;;;;;;5019676;28;20017;-64
2023/03/16 03:47:48;;;;;;;0.90;0.43;;;;;;;;;;5047020;28;20255;-67
2023/03/16 03:50:13;;;;;;;0.70;0.47;;;;;;;;;;5014753;28;20119;-69
2023/03/16 03:52:38;;;;;;;0.98;0.63;;;;;;;;;;5043074;28;20264;-71
2023/03/16 03:55:04;;;;;;;0.80;0.50;;;;;;;;;;5033962;28;20545;-66
2023/03/16 03:57:30;;;;;;;1.20;0.60;;;;;;;;;;5044065;28;20279;-66
2023/03/16 03:59:55;;;;;;;1.00;0.50;;;;;;;;;;5034711;28;20057;-66
2023/03/16 04:02:20;;;;;;;0.90;0.50;;;;;;;;;;5043884;28;20755;-67
2023/03/16 04:04:45;;;;;;;1.00;0.50;;;;;;;;;;5042197;28;20469;-65
2023/03/16 04:07:10;;;;;;;1.20;0.47;;;;;;;;;;5042370;28;20355;-62
2023/03/16 04:09:36;;;;;;;0.80;0.50;;;;;;;;;;5042983;28;20298;-64
2023/03/16 04:12:01;;;;;;;1.13;0.50;;;;;;;;;;5043213;28;20480;-67
2023/03/16 04:14:27;;;;;;;0.80;0.32;;;;;;;;;;5037542;28;20749;-67
2023/03/16 04:16:53;;;;;;;0.70;0.45;;;;;;;;;;5044680;28;20087;-70
2023/03/16 04:19:19;;;;;;;0.82;0.50;;;;;;;;;;5053665;28;20021;-67
2023/03/16 04:21:44;;;;;;;0.73;0.50;;;;;;;;;;5045708;28;20119;-65
2023/03/16 04:24:09;;;;;;;0.97;0.47;;;;;;;;;;5041656;28;20504;-67
2023/03/16 04:26:34;;;;;;;0.73;0.40;;;;;;;;;;5029171;28;20806;-66
2023/03/16 04:29:02;;;;;;;0.88;0.50;;;;;;;;;;5044988;28;20056;-63
2023/03/16 04:31:27;;;;;;;0.85;0.40;;;;;;;;;;5041243;28;20037;-69
2023/03/16 04:33:53;;;;;;;0.60;0.40;;;;;;;;;;5060119;28;20540;-69
2023/03/16 04:36:18;;;;;;;0.63;0.40;;;;;;;;;;5048607;28;20021;-69
2023/03/16 04:38:44;;;;;;;0.50;0.30;;;;;;;;;;5048527;28;20259;-64
2023/03/16 04:41:10;;;;;;;0.60;0.30;;;;;;;;;;5029402;28;20029;-67
2023/03/16 04:43:35;;;;;;;0.60;0.30;;;;;;;;;;5036979;28;20314;-67
2023/03/16 04:46:01;;;;;;;0.82;0.43;;;;;;;;;;5037210;28;20557;-66
2023/03/16 04:48:30;;;;;;;1.10;0.40;;;;;;;;;;5047011;28;20513;-66
2023/03/16 04:50:56;;;;;;;0.98;0.50;;;;;;;;;;5030763;28;20488;-67
2023/03/16 04:53:21;;;;;;;1.50;0.40;;;;;;;;;;5029193;28;20037;-66
2023/03/16 04:55:46;;;;;;;1.77;0.30;;;;;;;;;;5043461;28;20037;-76
2023/03/16 04:58:12;;;;;;;2.00;0.80;;;;;;;;;;5041984;28;20290;-65
2023/03/16 05:00:38;;;;;;;0.60;0.28;;;;;;;;;;5036282;28;20292;-81
2023/03/16 05:03:03;;;;;;;0.95;0.35;;;;;;;;;;5036971;28;20036;-68
2023/03/16 05:05:29;;;;;;;0.60;0.30;;;;;;;;;;5039098;28;20033;-75
2023/03/16 05:07:54;;;;;;;0.45;0.30;;;;;;;;;;5034457;28;20400;-68
2023/03/16 05:10:20;;;;;;;0.50;0.30;;;;;;;;;;5036837;28;20041;-70
2023/03/16 05:12:46;;;;;;;0.50;0.30;;;;;;;;;;5036654;28;20048;-68
2023/03/16 05:15:11;;;;;;;0.57;0.38;;;;;;;;;;5052727;28;20032;-69
2023/03/16 05:17:36;;;;;;;0.43;0.30;;;;;;;;;;5035500;28;20049;-73
2023/03/16 05:20:06;;;;;;;0.60;0.30;;;;;;;;;;5036577;28;20472;-67
2023/03/16 05:22:32;;;;;;;;;;;;;;;;;;5037161;28;20041;-73
2023/03/16 05:24:57;;;;;;;0.60;0.30;;;;;;;;;;5035481;28;19924;-69
2023/03/16 05:27:22;;;;;;;0.50;0.30;;;;;;;;;;5039368;28;20040;-73
2023/03/16 05:29:47;;;;;;;0.40;0.30;;;;;;;;;;5052204;28;20053;-67
2023/03/16 05:32:13;;;;;;;0.80;0.40;;;;;;;;;;5035329;28;20354;-67
2023/03/16 05:34:38;;;;;;;0.33;0.30;;;;;;;;;;5035516;28;20054;-70
2023/03/16 05:37:03;;;;;;;0.90;0.38;;;;;;;;;;5037013;28;20729;-70
2023/03/16 05:39:29;;;;;;;0.47;0.20;;;;;;;;;;5035931;28;20132;-71
2023/03/16 05:41:55;;;;;;;0.60;0.28;;;;;;;;;;5034761;28;20334;-69
2023/03/16 05:44:20;;;;;;;1.15;0.40;;;;;;;;;;5035585;28;20132;-65
2023/03/16 05:46:46;;;;;;;1.40;0.30;;;;;;;;;;5037088;28;20425;-68
2023/03/16 05:49:11;;;;;;;0.53;0.30;;;;;;;;;;5035646;28;20075;-67
2023/03/16 05:51:37;;;;;;;0.38;0.30;;;;;;;;;;5034325;28;20792;-68
2023/03/16 05:54:02;;;;;;;0.60;0.27;;;;;;;;;;5033700;28;20047;-69
2023/03/16 05:56:27;;;;;;;0.88;0.30;;;;;;;;;;5030739;28;20287;-67
2023/03/16 05:58:54;;;;;;;0.52;0.28;;;;;;;;;;5031231;28;20041;-65
2023/03/16 06:01:20;;;;;;;0.60;0.30;;;;;;;;;;5030284;28;20057;-60
2023/03/16 06:03:45;;;;;;;0.55;0.30;;;;;;;;;;5029915;28;20134;-67
2023/03/16 06:06:11;;;;;;;0.52;0.40;;;;;;;;;;5034948;28;20600;-65
2023/03/16 06:08:36;;;;;;;0.60;0.38;;;;;;;;;;5030548;28;20041;-68
2023/03/16 06:11:03;;;;;;;1.00;0.30;;;;;;;;;;5032410;28;20049;-69
2023/03/16 06:13:28;;;;;;;1.35;0.28;;;;;;;;;;5044137;28;22121;-69
2023/03/16 06:15:54;;;;;;;0.50;0.30;;;;;;;;;;5035628;28;20048;-66
2023/03/16 06:18:20;;;;;;;1.05;0.60;;;;;;;;;;5033473;28;20064;-71
2023/03/16 06:20:46;;;;;;;0.77;0.20;;;;;;;;;;5032078;28;20059;-64
2023/03/16 06:23:11;;;;;;;0.98;0.40;;;;;;;;;;5037750;28;20045;-72
2023/03/16 06:25:36;;;;;;;0.50;0.33;;;;;;;;;;5033388;28;20037;-72
2023/03/16 06:28:01;;;;;;;0.45;0.20;;;;;;;;;;5037478;28;20293;-66
2023/03/16 06:30:27;;;;;;;3.05;0.30;;;;;;;;;;5026366;28;20064;-68
2023/03/16 06:32:52;;;;;;;0.90;0.30;;;;;;;;;;5038124;28;20037;-68
2023/03/16 06:35:17;;;;;;;1.95;0.30;;;;;;;;;;5046577;28;20040;-64
2023/03/16 06:37:43;;;;;;;1.33;0.40;;;;;;;;;;5035352;28;20037;-66
2023/03/16 06:40:08;;;;;;;0.70;0.30;;;;;;;;;;5044744;28;20127;-65
2023/03/16 06:42:34;;;;;;;1.42;0.30;;;;;;;;;;5030873;28;20279;-70
2023/03/16 06:44:59;;;;;;;0.73;0.37;;;;;;;;;;5033358;28;20661;-67
2023/03/16 06:47:24;;;;;;;0.80;0.30;;;;;;;;;;5033532;28;20303;-68
2023/03/16 06:49:50;;;;;;;1.77;0.37;;;;;;;;;;5032929;28;20514;-69
2023/03/16 06:52:15;;;;;;;1.08;0.40;;;;;;;;;;5031349;28;20321;-66
2023/03/16 06:54:41;;;;;;;1.67;0.40;;;;;;;;;;5031556;28;20066;-67
2023/03/16 06:57:06;;;;;;;1.67;0.40;;;;;;;;;;5030458;28;20025;-69
2023/03/16 06:59:31;;;;;;;1.30;0.55;;;;;;;;;;5031590;28;20300;-65
2023/03/16 07:01:57;;;;;;;0.98;0.45;;;;;;;;;;5033922;28;20072;-66
2023/03/16 07:04:22;;;;;;;2.03;0.52;;;;;;;;;;5037651;28;20057;-74
2023/03/16 07:06:47;;;;;;;2.30;0.57;;;;;;;;;;5035247;28;20040;-73
2023/03/16 07:09:13;;;;;;;2.80;0.63;;;;;;;;;;5031630;28;20052;-74
2023/03/16 07:11:38;;;;;;;1.40;0.50;;;;;;;;;;5030721;28;20074;-65
2023/03/16 07:14:03;;;;;;;1.02;0.60;;;;;;;;;;5037756;28;20037;-78
2023/03/16 07:16:29;;;;;;;1.17;0.50;;;;;;;;;;5031742;28;20056;-66
2023/03/16 07:18:54;;;;;;;3.07;0.87;;;;;;;;;;5032856;28;20296;-74
2023/03/16 07:21:19;;;;;;;2.03;0.70;;;;;;;;;;5035627;28;20807;-74
2023/03/16 07:23:44;;;;;;;1.02;0.43;;;;;;;;;;5046814;28;20057;-65
2023/03/16 07:26:10;;;;;;;1.67;0.73;;;;;;;;;;5048576;28;20044;-66
2023/03/16 07:28:36;;;;;;;1.85;0.55;;;;;;;;;;5034895;28;20298;-70
2023/03/16 07:31:02;;;;;;;1.08;0.50;;;;;;;;;;5037156;28;20053;-67
2023/03/16 07:33:27;;;;;;;1.05;0.40;;;;;;;;;;5034406;28;20668;-70
2023/03/16 07:35:52;;;;;;;1.20;0.50;;;;;;;;;;5014154;28;21455;-70
2023/03/16 07:38:17;;;;;;;2.37;0.90;;;;;;;;;;5034012;28;20305;-71
2023/03/16 07:40:43;;;;;;;3.22;0.80;;;;;;;;;;5032664;28;20295;-68
2023/03/16 07:43:08;;;;;;;1.13;0.50;;;;;;;;;;5037875;28;20061;-67
2023/03/16 07:45:33;;;;;;;2.17;0.60;;;;;;;;;;5033695;28;20055;-70
2023/03/16 07:47:58;;;;;;;2.47;0.70;;;;;;;;;;5034271;28;20378;-70
2023/03/16 07:50:24;;;;;;;1.70;0.60;;;;;;;;;;5042494;28;20844;-66
2023/03/16 07:52:49;;;;;;;1.40;0.50;;;;;;;;;;5035402;28;20320;-71
2023/03/16 07:55:14;;;;;;;1.23;0.60;;;;;;;;;;5034666;28;20364;-67
2023/03/16 07:57:41;;;;;;;1.95;0.60;;;;;;;;;;5034650;28;20053;-64
2023/03/16 08:00:06;;;;;;;1.77;0.80;;;;;;;;;;5032213;28;20053;-71
2023/03/16 08:02:32;;;;;;;1.35;0.50;;;;;;;;;;5031106;28;20055;-68
2023/03/16 08:04:57;;;;;;;2.00;0.60;;;;;;;;;;5038108;28;20064;-75
2023/03/16 08:07:23;;;;;;;3.55;0.77;;;;;;;;;;5032063;28;22207;-65
2023/03/16 08:09:48;;;;;;;2.13;0.60;;;;;;;;;;5046288;28;20053;-72
2023/03/16 08:12:14;;;;;;;1.90;0.80;;;;;;;;;;5039727;28;20392;-71
2023/03/16 08:14:39;;;;;;;1.55;0.50;;;;;;;;;;5039608;28;20291;-66
2023/03/16 08:17:04;;;;;;;2.47;0.70;;;;;;;;;;5039956;28;20156;-70
2023/03/16 08:19:30;;;;;;;1.65;0.60;;;;;;;;;;5049239;28;20332;-68
2023/03/16 08:21:57;;;;;;;3.30;0.70;;;;;;;;;;5039913;28;20073;-65
2023/03/16 08:24:22;;;;;;;1.60;0.70;;;;;;;;;;5036669;28;20025;-76
2023/03/16 08:26:47;;;;;;;1.80;0.70;;;;;;;;;;5035849;28;20040;-71
2023/03/16 08:29:13;;;;;;;2.00;0.90;;;;;;;;;;5038323;28;20049;-67
2023/03/16 08:31:38;;;;;;;3.00;0.80;;;;;;;;;;5047327;28;20280;-70
2023/03/16 08:34:03;;;;;;;1.65;0.70;;;;;;;;;;5035390;28;20599;-69
2023/03/16 08:36:29;;;;;;;1.25;0.55;;;;;;;;;;5035102;28;20506;-73
2023/03/16 08:38:54;;;;;;;2.95;0.80;;;;;;;;;;5035773;28;20041;-74
2023/03/16 08:41:19;;;;;;;1.60;0.90;;;;;;;;;;5038597;28;20045;-68
2023/03/16 08:43:45;;;;;;;1.45;0.70;;;;;;;;;;5037892;28;20823;-68
2023/03/16 08:46:12;;;;;;;1.60;0.75;;;;;;;;;;5038513;28;20837;-69
2023/03/16 08:48:39;;;;;;;1.50;0.60;;;;;;;;;;5046769;28;20044;-71
2023/03/16 08:51:08;;;;;;;2.53;0.60;;;;;;;;;;5048619;28;20053;-65
2023/03/16 08:53:33;;;;;;;1.67;0.70;;;;;;;;;;5024160;28;20033;-71
2023/03/16 08:56:08;;;;;;;1.58;0.55;;;;;;;;;;5054286;28;20074;-68
2023/03/16 08:58:34;;;;;;;2.10;0.80;;;;;;;;;;5042538;28;20391;-67
2023/03/16 09:00:59;;;;;;;2.70;0.65;;;;;;;;;;5070640;28;20036;-68
2023/03/16 09:03:25;;;;;;;1.70;0.73;;;;;;;;;;5053642;28;20032;-70
2023/03/16 09:05:50;;;;;;;2.30;0.90;;;;;;;;;;5051426;28;20755;-71
2023/03/16 09:08:17;;;;;;;2.33;0.77;;;;;;;;;;5052809;28;20033;-69
2023/03/16 09:10:42;;;;;;;1.90;0.70;;;;;;;;;;5044223;28;20045;-75
2023/03/16 09:13:07;;;;;;;2.03;0.80;;;;;;;;;;5033722;28;20060;-77
2023/03/16 09:15:32;;;;;;;1.75;0.80;;;;;;;;;;5043467;28;20033;-75
2023/03/16 09:17:59;;;;;;;2.03;0.90;;;;;;;;;;5051303;28;20045;-67
2023/03/16 09:20:26;;;;;;;1.38;0.70;;;;;;;;;;5054707;28;20013;-62
2023/03/16 09:22:51;;;;;;;2.13;0.80;;;;;;;;;;5072442;28;20094;-62
2023/03/16 09:25:16;;;;;;;2.27;0.60;;;;;;;;;;5042236;28;20041;-65
2023/03/16 09:27:41;;;;;;;2.17;0.80;;;;;;;;;;5044000;28;20366;-73
2023/03/16 09:30:07;;;;;;;1.37;0.50;;;;;;;;;;5052288;28;20048;-74
2023/03/16 09:32:32;;;;;;;2.35;0.80;;;;;;;;;;5048040;28;20297;-71
2023/03/16 09:34:58;;;;;;;1.40;0.70;;;;;;;;;;5049383;28;20039;-74
2023/03/16 09:37:24;;;;;;;1.75;0.77;;;;;;;;;;5043969;28;20038;-65
2023/03/16 09:39:50;;;;;;;1.33;0.77;;;;;;;;;;5034699;28;20137;-68
2023/03/16 09:42:45;;;;;;;1.45;0.70;;;;;;;;;;5038739;28;20061;-70
2023/03/16 09:45:15;;;;;;;1.48;0.80;;;;;;;;;;5018899;28;20425;-68
2023/03/16 09:47:40;;;;;;;1.88;0.80;;;;;;;;;;5033047;28;20052;-66
2023/03/16 09:50:07;;;;;;;2.60;0.80;;;;;;;;;;5033027;28;20048;-70
2023/03/16 09:52:51;;;;;;;1.85;0.60;;;;;;;;;;5035658;28;20322;-66
2023/03/16 09:55:27;;;;;;;1.75;0.70;;;;;;;;;;5036146;28;20025;-64
2023/03/16 09:57:52;;;;;;;2.30;0.80;;;;;;;;;;5036361;28;20784;-64
2023/03/16 10:00:19;;;;;;;1.95;0.90;;;;;;;;;;5019598;28;20053;-70
2023/03/16 10:03:10;;;;;;;1.50;0.60;;;;;;;;;;5034602;28;20037;-70
2023/03/16 10:05:36;;;;;;;2.10;0.73;;;;;;;;;;5012013;28;20037;-73
2023/03/16 10:08:11;;;;;;;1.88;0.60;;;;;;;;;;5049486;28;20060;-67
2023/03/16 10:10:43;;;;;;;1.95;0.55;;;;;;;;;;5035363;28;20436;-71
2023/03/16 10:13:28;;;;;;;2.15;0.63;;;;;;;;;;5036039;28;20055;-68
2023/03/16 10:15:53;;;;;;;2.20;0.70;;;;;;;;;;5032909;28;20160;-66
2023/03/16 10:18:28;;;;;;;1.60;0.75;;;;;;;;;;5033372;28;20536;-65
2023/03/16 10:20:54;;;;;;;1.98;0.50;;;;;;;;;;5041709;28;20041;-69
2023/03/16 10:23:21;;;;;;;2.10;0.70;;;;;;;;;;5032293;28;20037;-70
2023/03/16 10:25:47;;;;;;;3.05;0.70;;;;;;;;;;5030243;28;20048;-65
2023/03/16 10:28:14;;;;;;;2.08;0.70;;;;;;;;;;5031638;28;20037;-66
2023/03/16 10:30:39;;;;;;;1.67;0.80;;;;;;;;;;5030456;28;20071;-66
2023/03/16 10:33:27;;;;;;;2.53;0.80;;;;;;;;;;5031583;28;20443;-63
2023/03/16 10:35:52;;;;;;;1.85;0.85;;;;;;;;;;5031921;28;20206;-64
2023/03/16 10:38:48;;;;;;;1.52;0.77;;;;;;;;;;5032547;28;20472;-70
2023/03/16 10:41:19;;;;;;;1.45;0.50;;;;;;;;;;5030788;28;20534;-63
2023/03/16 10:43:45;;;;;;;2.10;0.82;;;;;;;;;;5031506;28;20037;-64
2023/03/16 10:46:10;;;;;;;2.58;0.90;;;;;;;;;;5042255;28;20033;-67
2023/03/16 10:48:36;;;;;;;2.03;0.85;;;;;;;;;;5030625;28;20541;-63
2023/03/16 10:51:02;;;;;;;1.55;0.68;;;;;;;;;;5032279;28;20525;-66
2023/03/16 10:53:28;;;;;;;1.98;0.80;;;;;;;;;;5032151;28;20437;-68
2023/03/16 10:55:57;;;;;;;1.75;0.60;;;;;;;;;;5042884;28;20045;-71
2023/03/16 10:58:24;;;;;;;1.73;0.80;;;;;;;;;;5030854;28;20049;-67
2023/03/16 11:00:50;;;;;;;1.85;0.73;;;;;;;;;;5031549;28;20068;-62
2023/03/16 11:03:40;;;;;;;1.80;0.70;;;;;;;;;;5030492;28;20033;-66
2023/03/16 11:06:06;;;;;;;1.88;0.88;;;;;;;;;;5021385;28;20064;-63
2023/03/16 11:08:32;;;;;;;1.90;0.80;;;;;;;;;;5034141;28;20053;-62
2023/03/16 11:11:07;;;;;;;2.10;0.77;;;;;;;;;;5031066;28;20068;-67
2023/03/16 11:13:33;;;;;;;1.83;0.80;;;;;;;;;;5040203;28;20044;-61
2023/03/16 11:16:11;;;;;;;1.98;0.80;;;;;;;;;;5031926;28;20037;-66
2023/03/16 11:18:39;;;;;;;2.38;0.82;;;;;;;;;;5028520;28;21672;-64
2023/03/16 11:21:11;;;;;;;1.73;0.77;;;;;;;;;;5031354;28;20036;-67
2023/03/16 11:23:37;;;;;;;2.08;0.85;;;;;;;;;;5033870;28;20071;-67
2023/03/16 11:26:04;;;;;;;1.73;0.75;;;;;;;;;;5031185;28;20034;-65
2023/03/16 11:28:50;;;;;;;3.60;1.08;;;;;;;;;;5028819;28;20040;-65
2023/03/16 11:31:15;;;;;;;1.70;0.88;;;;;;;;;;5029165;28;20045;-65
2023/03/16 11:33:41;;;;;;;1.27;0.60;;;;;;;;;;5030146;28;20025;-69
2023/03/16 11:36:12;;;;;;;2.15;0.93;;;;;;;;;;5022801;28;20049;-64
2023/03/16 11:38:40;;;;;;;1.33;0.60;;;;;;;;;;5037623;28;20042;-66
2023/03/16 11:41:10;;;;;;;2.30;1.05;;;;;;;;;;5015509;28;20131;-63
2023/03/16 11:43:41;;;;;;;1.27;0.70;;;;;;;;;;5040434;28;20033;-60
2023/03/16 11:46:14;;;;;;;1.80;0.70;;;;;;;;;;5028272;28;20033;-61
2023/03/16 11:48:41;;;;;;;2.00;0.73;;;;;;;;;;5037814;28;20029;-62
2023/03/16 11:51:09;;;;;;;1.50;0.70;;;;;;;;;;5029561;28;20040;-69
2023/03/16 11:53:35;;;;;;;2.28;0.77;;;;;;;;;;5030146;28;20043;-62
2023/03/16 11:56:07;;;;;;;1.60;0.70;;;;;;;;;;5034019;28;20029;-64
2023/03/16 11:58:32;;;;;;;3.08;0.93;;;;;;;;;;5029557;28;20177;-62
2023/03/16 12:01:00;;;;;;;1.90;0.75;;;;;;;;;;5028064;28;20084;-69
2023/03/16 12:03:31;;;;;;;1.13;0.57;;;;;;;;;;5028676;28;20048;-64
2023/03/16 12:06:21;;;;;;;1.73;0.70;;;;;;;;;;5028204;28;20068;-68
2023/03/16 12:08:56;;;;;;;1.48;0.70;;;;;;;;;;5028498;28;20037;-65
2023/03/16 12:11:22;;;;;;;2.05;1.00;;;;;;;;;;5042716;28;20057;-64
2023/03/16 12:13:51;;;;;;;1.52;0.70;;;;;;;;;;5031039;28;20135;-70
2023/03/16 12:16:19;;;;;;;2.13;0.68;;;;;;;;;;5030629;28;20052;-64
2023/03/16 12:18:52;;;;;;;1.38;0.70;;;;;;;;;;5032157;28;20037;-66
2023/03/16 12:21:22;;;;;;;2.25;0.73;;;;;;;;;;5031123;28;20033;-67
2023/03/16 12:23:47;;;;;;;1.20;0.60;;;;;;;;;;5040045;28;20048;-67
2023/03/16 12:26:13;;;;;;;2.00;0.73;;;;;;;;;;5031431;28;20045;-72
2023/03/16 12:28:39;;;;;;;1.65;0.70;;;;;;;;;;5033255;28;20041;-72
2023/03/16 12:31:08;;;;;;;1.48;0.60;;;;;;;;;;5031512;28;20088;-68
2023/03/16 12:33:39;;;;;;;1.27;0.70;;;;;;;;;;5032808;28;20591;-71
2023/03/16 12:36:14;;;;;;;1.60;0.80;;;;;;;;;;5027614;28;20192;-68
2023/03/16 12:38:48;;;;;;;1.50;0.70;;;;;;;;;;5032345;28;20191;-69
2023/03/16 12:41:23;;;;;;;1.17;0.70;;;;;;;;;;5031835;28;20051;-63
2023/03/16 12:43:56;;;;;;;1.50;0.60;;;;;;;;;;5037846;28;20025;-70
2023/03/16 12:46:21;;;;;;;2.15;0.90;;;;;;;;;;5042361;28;20045;-66
2023/03/16 12:48:48;;;;;;;1.77;0.93;;;;;;;;;;5033226;28;20030;-62
2023/03/16 12:51:14;;;;;;;1.20;0.70;;;;;;;;;;5039672;28;20052;-68
2023/03/16 12:53:42;;;;;;;2.15;1.08;;;;;;;;;;5028648;28;20029;-67
2023/03/16 12:56:10;;;;;;;1.42;0.75;;;;;;;;;;5042851;28;20044;-62
2023/03/16 12:58:38;;;;;;;1.58;0.77;;;;;;;;;;5034340;28;20064;-66
2023/03/16 13:01:04;;;;;;;1.17;0.60;;;;;;;;;;5031175;28;20117;-69
2023/03/16 13:03:30;;;;;;;1.70;0.60;;;;;;;;;;5029097;28;20107;-66
2023/03/16 13:05:56;;;;;;;1.70;0.70;;;;;;;;;;5040307;28;20051;-67
2023/03/16 13:08:22;;;;;;;1.20;0.77;;;;;;;;;;5039999;28;20025;-64
2023/03/16 13:10:59;;;;;;;1.40;0.65;;;;;;;;;;5050666;28;20491;-73
2023/03/16 13:13:26;;;;;;;1.70;0.88;;;;;;;;;;5033216;28;20032;-64
2023/03/16 13:16:00;;;;;;;1.98;0.90;;;;;;;;;;5025548;28;20021;-67
2023/03/16 13:18:26;;;;;;;1.42;0.73;;;;;;;;;;5019820;28;20131;-66
2023/03/16 13:20:52;;;;;;;1.75;0.75;;;;;;;;;;5039618;28;20486;-68
2023/03/16 13:23:17;;;;;;;1.60;0.80;;;;;;;;;;5017664;28;20026;-71
2023/03/16 13:26:01;;;;;;;1.77;0.70;;;;;;;;;;5029390;28;20124;-69
2023/03/16 13:28:28;;;;;;;1.48;0.75;;;;;;;;;;5041033;28;20338;-70
2023/03/16 13:30:53;;;;;;;1.20;0.75;;;;;;;;;;5046944;28;20048;-69
2023/03/16 13:33:23;;;;;;;2.40;0.85;;;;;;;;;;5071340;28;20040;-72
2023/03/16 13:35:49;;;;;;;1.90;0.80;;;;;;;;;;5052327;28;20045;-68
2023/03/16 13:38:15;;;;;;;1.90;0.70;;;;;;;;;;5044511;28;20060;-70
2023/03/16 13:40:47;;;;;;;1.15;0.60;;;;;;;;;;5025618;28;20047;-64
2023/03/16 13:43:16;;;;;;;1.42;0.80;;;;;;;;;;5030369;28;20044;-68
2023/03/16 13:45:41;;;;;;;1.42;0.80;;;;;;;;;;5046016;28;20068;-62
2023/03/16 13:48:10;;;;;;;1.60;0.90;;;;;;;;;;5018280;28;20041;-68
2023/03/16 13:50:37;;;;;;;1.60;0.70;;;;;;;;;;5037804;28;20128;-68
2023/03/16 13:53:03;;;;;;;1.63;0.70;;;;;;;;;;5037297;28;20042;-70
2023/03/16 13:55:29;;;;;;;1.60;0.70;;;;;;;;;;5018701;28;20029;-73
2023/03/16 13:57:55;;;;;;;1.92;0.70;;;;;;;;;;5026599;28;20061;-72
2023/03/16 14:00:21;;;;;;;1.75;0.70;;;;;;;;;;5042050;28;20032;-65
2023/03/16 14:02:47;;;;;;;1.08;0.70;;;;;;;;;;5040848;28;20037;-67
2023/03/16 14:05:17;;;;;;;1.98;1.00;;;;;;;;;;5048178;28;20051;-67
2023/03/16 14:07:42;;;;;;;;;;;;;;;;;;5033781;28;20064;-66
2023/03/16 14:10:08;;;;;;;1.35;0.85;;;;;;;;;;5033297;28;19917;-72
2023/03/16 14:12:36;;;;;;;1.48;0.70;;;;;;;;;;5036040;28;20128;-68
2023/03/16 14:15:02;;;;;;;1.02;0.57;;;;;;;;;;5047565;28;20056;-65
2023/03/16 14:17:28;;;;;;;1.48;0.90;;;;;;;;;;5045698;28;20109;-70
2023/03/16 14:19:58;;;;;;;1.67;0.75;;;;;;;;;;5037819;28;20144;-73
2023/03/16 14:22:24;;;;;;;1.40;0.77;;;;;;;;;;5037654;28;20088;-67
2023/03/16 14:24:53;;;;;;;1.50;0.80;;;;;;;;;;5043357;28;20064;-67
2023/03/16 14:27:20;;;;;;;2.38;0.90;;;;;;;;;;5044517;28;20048;-64
2023/03/16 14:29:49;;;;;;;1.77;0.82;;;;;;;;;;5031595;28;20437;-66
2023/03/16 14:32:27;;;;;;;1.65;0.80;;;;;;;;;;5039495;28;20048;-65
2023/03/16 14:34:52;;;;;;;1.63;0.70;;;;;;;;;;5043754;28;20033;-70
2023/03/16 14:37:18;;;;;;;1.30;0.77;;;;;;;;;;5042615;28;20034;-69
2023/03/16 14:39:43;;;;;;;1.02;0.60;;;;;;;;;;5042095;28;20085;-63
2023/03/16 14:42:21;;;;;;;1.85;1.08;;;;;;;;;;5045748;28;20072;-63